sensor_id;sensor_type;location;lat;lon;timestamp;pressure;altitude;pressure_sealevel;temperature;humidity
8627;BME280;4351;51.422;6.794;2022-07-17T00:00:57;102279.81;;;15.71;100.00
8627;BME280;4351;51.422;6.794;2022-07-17T00:03:25;102281.31;;;15.61;100.00
8627;BME280;4351;51.422;6.794;2022-07-17T00:05:53;102277.97;;;15.56;100.00
8627;BME280;4351;51.422;6.794;2022-07-17T00:08:23;102272.63;;;15.54;100.00
8627;BME280;4351;51.422;6.794;2022-07-17T00:10:51;102276.06;;;15.42;100.00
8627;BME280;4351;51.422;6.794;2022-07-17T00:13:21;102267.66;;;15.46;100.00
8627;BME280;4351;51.422;6.794;2022-07-17T00:15:49;102270.97;;;15.51;100.00
8627;BME280;4351;51.422;6.794;2022-07-17T00:18:17;102269.38;;;15.47;100.00
8627;BME280;4351;51.422;6.794;2022-07-17T00:20:45;102273.09;;;15.46;100.00
8627;BME280;4351;51.422;6.794;2022-07-17T00:23:14;102269.31;;;15.33;100.00
8627;BME280;4351;51.422;6.794;2022-07-17T00:25:43;102260.88;;;15.21;100.00
8627;BME280;4351;51.422;6.794;2022-07-17T00:28:12;102271.31;;;15.13;100.00
8627;BME280;4351;51.422;6.794;2022-07-17T00:30:40;102274.53;;;15.03;100.00
8627;BME280;4351;51.422;6.794;2022-07-17T00:33:08;102263.66;;;15.03;100.00
8627;BME280;4351;51.422;6.794;2022-07-17T00:35:36;102269.28;;;15.00;100.00
8627;BME280;4351;51.422;6.794;2022-07-17T00:38:06;102273.84;;;15.00;100.00
8627;BME280;4351;51.422;6.794;2022-07-17T00:40:34;102273.38;;;14.91;100.00
8627;BME280;4351;51.422;6.794;2022-07-17T00:43:03;102271.72;;;14.89;100.00
8627;BME280;4351;51.422;6.794;2022-07-17T00:45:32;102278.63;;;14.94;100.00
8627;BME280;4351;51.422;6.794;2022-07-17T00:48:02;102278.28;;;14.85;100.00
8627;BME280;4351;51.422;6.794;2022-07-17T00:50:33;102284.16;;;14.75;100.00
8627;BME280;4351;51.422;6.794;2022-07-17T00:53:03;102279.53;;;14.77;100.00
8627;BME280;4351;51.422;6.794;2022-07-17T00:55:31;102278.56;;;14.78;100.00
8627;BME280;4351;51.422;6.794;2022-07-17T00:58:15;102275.22;;;14.73;100.00
8627;BME280;4351;51.422;6.794;2022-07-17T01:00:46;102273.94;;;14.80;100.00
8627;BME280;4351;51.422;6.794;2022-07-17T01:03:15;102272.66;;;14.88;100.00
8627;BME280;4351;51.422;6.794;2022-07-17T01:05:44;102271.97;;;14.84;100.00
8627;BME280;4351;51.422;6.794;2022-07-17T01:08:12;102272.66;;;14.88;100.00
8627;BME280;4351;51.422;6.794;2022-07-17T01:10:41;102261.66;;;14.73;100.00
8627;BME280;4351;51.422;6.794;2022-07-17T01:13:09;102259.41;;;14.64;100.00
8627;BME280;4351;51.422;6.794;2022-07-17T01:15:39;102271.72;;;14.71;100.00
8627;BME280;4351;51.422;6.794;2022-07-17T01:18:09;102272.34;;;14.76;100.00
8627;BME280;4351;51.422;6.794;2022-07-17T01:20:39;102275.69;;;14.81;100.00
8627;BME280;4351;51.422;6.794;2022-07-17T01:23:10;102266.59;;;14.82;100.00
8627;BME280;4351;51.422;6.794;2022-07-17T01:25:38;102268.31;;;14.83;100.00
8627;BME280;4351;51.422;6.794;2022-07-17T01:28:07;102261.97;;;14.85;100.00
8627;BME280;4351;51.422;6.794;2022-07-17T01:30:35;102267.41;;;14.85;100.00
8627;BME280;4351;51.422;6.794;2022-07-17T01:33:04;102265.59;;;14.83;100.00
8627;BME280;4351;51.422;6.794;2022-07-17T01:35:32;102259.06;;;14.88;100.00
8627;BME280;4351;51.422;6.794;2022-07-17T01:38:00;102258.91;;;14.91;100.00
8627;BME280;4351;51.422;6.794;2022-07-17T01:40:30;102256.34;;;14.88;100.00
8627;BME280;4351;51.422;6.794;2022-07-17T01:42:58;102256.19;;;14.91;100.00
8627;BME280;4351;51.422;6.794;2022-07-17T01:45:26;102255.41;;;14.89;100.00
8627;BME280;4351;51.422;6.794;2022-07-17T01:47:54;102254.38;;;14.91;100.00
8627;BME280;4351;51.422;6.794;2022-07-17T01:50:22;102249.56;;;14.79;100.00
8627;BME280;4351;51.422;6.794;2022-07-17T01:52:51;102255.97;;;14.78;100.00
8627;BME280;4351;51.422;6.794;2022-07-17T01:55:19;102253.03;;;14.65;100.00
8627;BME280;4351;51.422;6.794;2022-07-17T01:57:48;102252.06;;;14.66;100.00
8627;BME280;4351;51.422;6.794;2022-07-17T02:00:18;102255.75;;;14.65;100.00
8627;BME280;4351;51.422;6.794;2022-07-17T02:02:49;102247.22;;;14.55;100.00
8627;BME280;4351;51.422;6.794;2022-07-17T02:05:18;102243.63;;;14.54;100.00
8627;BME280;4351;51.422;6.794;2022-07-17T02:07:46;102234.38;;;14.58;100.00
8627;BME280;4351;51.422;6.794;2022-07-17T02:10:15;102236.91;;;14.62;100.00
8627;BME280;4351;51.422;6.794;2022-07-17T02:12:43;102243.31;;;14.60;100.00
8627;BME280;4351;51.422;6.794;2022-07-17T02:15:13;102238.66;;;14.63;100.00
8627;BME280;4351;51.422;6.794;2022-07-17T02:17:42;102239.56;;;14.45;100.00
8627;BME280;4351;51.422;6.794;2022-07-17T02:20:11;102234.47;;;14.39;100.00
8627;BME280;4351;51.422;6.794;2022-07-17T02:22:42;102234.22;;;14.44;100.00
8627;BME280;4351;51.422;6.794;2022-07-17T02:25:12;102234.38;;;14.41;100.00
8627;BME280;4351;51.422;6.794;2022-07-17T02:27:41;102237.44;;;14.34;100.00
8627;BME280;4351;51.422;6.794;2022-07-17T02:30:13;102235.53;;;14.36;100.00
8627;BME280;4351;51.422;6.794;2022-07-17T02:32:42;102239.56;;;14.45;100.00
8627;BME280;4351;51.422;6.794;2022-07-17T02:35:11;102244.47;;;14.39;100.00
8627;BME280;4351;51.422;6.794;2022-07-17T02:37:40;102246.19;;;14.40;100.00
8627;BME280;4351;51.422;6.794;2022-07-17T02:40:10;102243.94;;;14.48;100.00
8627;BME280;4351;51.422;6.794;2022-07-17T02:42:39;102243.78;;;14.51;100.00
8627;BME280;4351;51.422;6.794;2022-07-17T02:45:09;102241.22;;;14.48;100.00
8627;BME280;4351;51.422;6.794;2022-07-17T02:47:38;102241.22;;;14.48;100.00
8627;BME280;4351;51.422;6.794;2022-07-17T02:50:08;102237.25;;;14.37;100.00
8627;BME280;4351;51.422;6.794;2022-07-17T02:52:37;102245.59;;;14.34;100.00
8627;BME280;4351;51.422;6.794;2022-07-17T02:55:06;102240.22;;;14.33;100.00
8627;BME280;4351;51.422;6.794;2022-07-17T02:57:34;102239.34;;;14.32;100.00
8627;BME280;4351;51.422;6.794;2022-07-17T03:00:04;102237.25;;;14.37;100.00
8627;BME280;4351;51.422;6.794;2022-07-17T03:02:32;102244.13;;;14.27;100.00
8627;BME280;4351;51.422;6.794;2022-07-17T03:05:02;102244.06;;;14.29;100.00
8627;BME280;4351;51.422;6.794;2022-07-17T03:07:30;102248.44;;;14.31;100.00
8627;BME280;4351;51.422;6.794;2022-07-17T03:09:59;102253.72;;;14.34;100.00
8627;BME280;4351;51.422;6.794;2022-07-17T03:12:27;102257.28;;;14.35;100.00
8627;BME280;4351;51.422;6.794;2022-07-17T03:14:55;102263.22;;;14.43;100.00
8627;BME280;4351;51.422;6.794;2022-07-17T03:17:23;102261.78;;;14.18;100.00
8627;BME280;4351;51.422;6.794;2022-07-17T03:19:52;102261.94;;;14.33;100.00
8627;BME280;4351;51.422;6.794;2022-07-17T03:22:21;102261.22;;;14.29;100.00
8627;BME280;4351;51.422;6.794;2022-07-17T03:24:49;102253.31;;;14.24;100.00
8627;BME280;4351;51.422;6.794;2022-07-17T03:27:18;102259.16;;;14.34;100.00
8627;BME280;4351;51.422;6.794;2022-07-17T03:29:46;102262.25;;;14.27;100.00
8627;BME280;4351;51.422;6.794;2022-07-17T03:32:14;102259.72;;;14.23;100.00
8627;BME280;4351;51.422;6.794;2022-07-17T03:34:43;102263.28;;;14.24;100.00
8627;BME280;4351;51.422;6.794;2022-07-17T03:37:11;102267.78;;;14.25;100.00
8627;BME280;4351;51.422;6.794;2022-07-17T03:39:41;102263.28;;;14.24;100.00
8627;BME280;4351;51.422;6.794;2022-07-17T03:42:09;102268.66;;;14.25;100.00
8627;BME280;4351;51.422;6.794;2022-07-17T03:44:38;102259.78;;;14.22;100.00
8627;BME280;4351;51.422;6.794;2022-07-17T03:47:06;102261.53;;;14.23;100.00
8627;BME280;4351;51.422;6.794;2022-07-17T03:49:34;102265.38;;;14.19;100.00
8627;BME280;4351;51.422;6.794;2022-07-17T03:52:03;102260.84;;;14.19;100.00
8627;BME280;4351;51.422;6.794;2022-07-17T03:54:31;102263.78;;;14.14;100.00
8627;BME280;4351;51.422;6.794;2022-07-17T03:57:01;102259.94;;;14.19;100.00
8627;BME280;4351;51.422;6.794;2022-07-17T03:59:29;102265.28;;;14.20;100.00
8627;BME280;4351;51.422;6.794;2022-07-17T04:01:57;102261.69;;;14.20;100.00
8627;BME280;4351;51.422;6.794;2022-07-17T04:04:25;102248.34;;;14.15;100.00
8627;BME280;4351;51.422;6.794;2022-07-17T04:06:54;102253.41;;;14.05;100.00
8627;BME280;4351;51.422;6.794;2022-07-17T04:09:22;102250.84;;;14.02;100.00
8627;BME280;4351;51.422;6.794;2022-07-17T04:11:50;102252.13;;;13.95;100.00
8627;BME280;4351;51.422;6.794;2022-07-17T04:14:19;102249.00;;;14.02;100.00
8627;BME280;4351;51.422;6.794;2022-07-17T04:16:48;102252.38;;;14.08;100.00
8627;BME280;4351;51.422;6.794;2022-07-17T04:19:16;102257.06;;;14.04;100.00
8627;BME280;4351;51.422;6.794;2022-07-17T04:21:44;102256.75;;;14.10;100.00
8627;BME280;4351;51.422;6.794;2022-07-17T04:24:12;102259.84;;;14.02;100.00
8627;BME280;4351;51.422;6.794;2022-07-17T04:26:40;102265.84;;;14.09;100.00
8627;BME280;4351;51.422;6.794;2022-07-17T04:29:08;102263.00;;;14.12;100.00
8627;BME280;4351;51.422;6.794;2022-07-17T04:31:38;102275.50;;;14.15;100.00
8627;BME280;4351;51.422;6.794;2022-07-17T04:34:06;102259.78;;;14.22;100.00
8627;BME280;4351;51.422;6.794;2022-07-17T04:36:35;102262.81;;;14.16;100.00
8627;BME280;4351;51.422;6.794;2022-07-17T04:39:03;102266.19;;;14.21;100.00
8627;BME280;4351;51.422;6.794;2022-07-17T04:41:31;102264.34;;;14.21;100.00
8627;BME280;4351;51.422;6.794;2022-07-17T04:43:59;102270.47;;;14.25;100.00
8627;BME280;4351;51.422;6.794;2022-07-17T04:46:27;102268.72;;;14.24;100.00
8627;BME280;4351;51.422;6.794;2022-07-17T04:48:59;102276.81;;;14.25;100.00
8627;BME280;4351;51.422;6.794;2022-07-17T04:51:28;102268.41;;;14.30;100.00
8627;BME280;4351;51.422;6.794;2022-07-17T04:53:56;102266.22;;;14.37;100.00
8627;BME280;4351;51.422;6.794;2022-07-17T04:56:24;102276.16;;;14.38;100.00
8627;BME280;4351;51.422;6.794;2022-07-17T04:58:52;102276.84;;;14.42;100.00
8627;BME280;4351;51.422;6.794;2022-07-17T05:01:21;102283.41;;;14.37;100.00
8627;BME280;4351;51.422;6.794;2022-07-17T05:03:50;102284.06;;;14.43;100.00
8627;BME280;4351;51.422;6.794;2022-07-17T05:06:19;102282.13;;;14.45;100.00
8627;BME280;4351;51.422;6.794;2022-07-17T05:08:47;102286.44;;;14.49;100.00
8627;BME280;4351;51.422;6.794;2022-07-17T05:11:15;102288.28;;;14.48;100.00
8627;BME280;4351;51.422;6.794;2022-07-17T05:13:44;102295.16;;;14.56;100.00
8627;BME280;4351;51.422;6.794;2022-07-17T05:16:13;102304.78;;;14.62;100.00
8627;BME280;4351;51.422;6.794;2022-07-17T05:18:41;102310.78;;;14.68;100.00
8627;BME280;4351;51.422;6.794;2022-07-17T05:21:09;102313.72;;;14.64;100.00
8627;BME280;4351;51.422;6.794;2022-07-17T05:23:39;102318.25;;;14.81;100.00
8627;BME280;4351;51.422;6.794;2022-07-17T05:26:07;102320.28;;;14.77;100.00
8627;BME280;4351;51.422;6.794;2022-07-17T05:28:35;102318.19;;;14.82;100.00
8627;BME280;4351;51.422;6.794;2022-07-17T05:31:04;102321.31;;;14.92;100.00
8627;BME280;4351;51.422;6.794;2022-07-17T05:33:33;102322.19;;;14.93;100.00
8627;BME280;4351;51.422;6.794;2022-07-17T05:36:02;102320.03;;;15.00;100.00
8627;BME280;4351;51.422;6.794;2022-07-17T05:38:30;102321.84;;;14.99;100.00
8627;BME280;4351;51.422;6.794;2022-07-17T05:41:00;102331.78;;;15.00;100.00
8627;BME280;4351;51.422;6.794;2022-07-17T05:43:28;102324.78;;;15.12;100.00
8627;BME280;4351;51.422;6.794;2022-07-17T05:45:56;102328.84;;;15.21;100.00
8627;BME280;4351;51.422;6.794;2022-07-17T05:48:26;102321.13;;;15.29;100.00
8627;BME280;4351;51.422;6.794;2022-07-17T05:50:54;102317.25;;;15.34;100.00
8627;BME280;4351;51.422;6.794;2022-07-17T05:53:22;102311.13;;;15.30;100.00
8627;BME280;4351;51.422;6.794;2022-07-17T05:55:53;102307.03;;;15.39;100.00
8627;BME280;4351;51.422;6.794;2022-07-17T05:58:25;102302.81;;;15.49;100.00
8627;BME280;4351;51.422;6.794;2022-07-17T06:00:55;102302.19;;;15.60;100.00
8627;BME280;4351;51.422;6.794;2022-07-17T06:03:23;102303.88;;;15.63;100.00
8627;BME280;4351;51.422;6.794;2022-07-17T06:05:51;102305.06;;;15.73;100.00
8627;BME280;4351;51.422;6.794;2022-07-17T06:08:20;102302.63;;;15.85;100.00
8627;BME280;4351;51.422;6.794;2022-07-17T06:10:50;102295.84;;;15.92;100.00
8627;BME280;4351;51.422;6.794;2022-07-17T06:13:40;102298.22;;;15.98;100.00
8627;BME280;4351;51.422;6.794;2022-07-17T06:16:08;102299.00;;;16.01;100.00
8627;BME280;4351;51.422;6.794;2022-07-17T06:18:37;102289.06;;;16.00;100.00
8627;BME280;4351;51.422;6.794;2022-07-17T06:21:05;102295.91;;;15.91;100.00
8627;BME280;4351;51.422;6.794;2022-07-17T06:23:34;102293.03;;;15.94;100.00
8627;BME280;4351;51.422;6.794;2022-07-17T06:26:08;102288.66;;;16.07;100.00
8627;BME280;4351;51.422;6.794;2022-07-17T06:28:36;102293.19;;;16.23;100.00
8627;BME280;4351;51.422;6.794;2022-07-17T06:31:10;102292.81;;;16.29;100.00
8627;BME280;4351;51.422;6.794;2022-07-17T06:33:41;102295.41;;;16.16;100.00
8627;BME280;4351;51.422;6.794;2022-07-17T06:36:09;102298.25;;;16.29;100.00
8627;BME280;4351;51.422;6.794;2022-07-17T06:38:38;102295.03;;;16.37;100.00
8627;BME280;4351;51.422;6.794;2022-07-17T06:41:09;102302.28;;;16.53;100.00
8627;BME280;4351;51.422;6.794;2022-07-17T06:43:39;102299.44;;;16.54;100.00
8627;BME280;4351;51.422;6.794;2022-07-17T06:46:07;102302.38;;;16.51;100.00
8627;BME280;4351;51.422;6.794;2022-07-17T06:48:37;102297.22;;;16.61;100.00
8627;BME280;4351;51.422;6.794;2022-07-17T06:51:07;102303.50;;;16.78;100.00
8627;BME280;4351;51.422;6.794;2022-07-17T06:53:35;102305.22;;;16.79;100.00
8627;BME280;4351;51.422;6.794;2022-07-17T06:56:06;102307.00;;;16.95;100.00
8627;BME280;4351;51.422;6.794;2022-07-17T06:58:35;102298.22;;;16.89;100.00
8627;BME280;4351;51.422;6.794;2022-07-17T07:01:03;102303.88;;;17.01;100.00
8627;BME280;4351;51.422;6.794;2022-07-17T07:03:31;102304.28;;;16.95;100.00
8627;BME280;4351;51.422;6.794;2022-07-17T07:06:04;102294.53;;;17.05;100.00
8627;BME280;4351;51.422;6.794;2022-07-17T07:08:42;102298.25;;;17.04;100.00
8627;BME280;4351;51.422;6.794;2022-07-17T07:11:11;102295.41;;;17.06;100.00
8627;BME280;4351;51.422;6.794;2022-07-17T07:13:39;102298.25;;;17.19;100.00
8627;BME280;4351;51.422;6.794;2022-07-17T07:16:08;102303.31;;;17.25;100.00
8627;BME280;4351;51.422;6.794;2022-07-17T07:18:40;102290.63;;;17.39;100.00
8627;BME280;4351;51.422;6.794;2022-07-17T07:21:09;102298.63;;;17.27;100.00
8627;BME280;4351;51.422;6.794;2022-07-17T07:23:38;102291.91;;;17.18;100.00
8627;BME280;4351;51.422;6.794;2022-07-17T07:26:09;102289.84;;;17.37;100.00
8627;BME280;4351;51.422;6.794;2022-07-17T07:28:37;102293.25;;;17.40;100.00
8627;BME280;4351;51.422;6.794;2022-07-17T07:31:07;102293.25;;;17.40;100.00
8627;BME280;4351;51.422;6.794;2022-07-17T07:34:00;102303.03;;;17.72;100.00
8627;BME280;4351;51.422;6.794;2022-07-17T07:36:30;102307.59;;;17.72;100.00
8627;BME280;4351;51.422;6.794;2022-07-17T07:38:58;102307.19;;;17.78;100.00
8627;BME280;4351;51.422;6.794;2022-07-17T07:41:26;102316.25;;;17.78;100.00
8627;BME280;4351;51.422;6.794;2022-07-17T07:43:59;102324.19;;;17.96;100.00
8627;BME280;4351;51.422;6.794;2022-07-17T07:46:28;102313.97;;;18.13;100.00
8627;BME280;4351;51.422;6.794;2022-07-17T07:48:59;102320.16;;;18.30;100.00
8627;BME280;4351;51.422;6.794;2022-07-17T07:51:27;102322.16;;;18.13;100.00
8627;BME280;4351;51.422;6.794;2022-07-17T07:54:17;102331.34;;;18.12;100.00
8627;BME280;4351;51.422;6.794;2022-07-17T07:56:45;102329.25;;;18.15;100.00
8627;BME280;4351;51.422;6.794;2022-07-17T07:59:13;102329.94;;;18.19;100.00
8627;BME280;4351;51.422;6.794;2022-07-17T08:01:41;102330.56;;;18.37;100.00
8627;BME280;4351;51.422;6.794;2022-07-17T08:04:10;102337.81;;;18.52;100.00
8627;BME280;4351;51.422;6.794;2022-07-17T08:06:38;102326.53;;;18.56;100.00
8627;BME280;4351;51.422;6.794;2022-07-17T08:09:06;102335.84;;;18.54;100.00
8627;BME280;4351;51.422;6.794;2022-07-17T08:11:36;102341.41;;;18.65;100.00
8627;BME280;4351;51.422;6.794;2022-07-17T08:14:05;102341.97;;;18.70;100.00
8627;BME280;4351;51.422;6.794;2022-07-17T08:16:43;102339.78;;;18.76;100.00
8627;BME280;4351;51.422;6.794;2022-07-17T08:19:11;102351.25;;;18.81;100.00
8627;BME280;4351;51.422;6.794;2022-07-17T08:21:39;102346.34;;;18.99;100.00
8627;BME280;4351;51.422;6.794;2022-07-17T08:24:07;102345.66;;;18.95;100.00
8627;BME280;4351;51.422;6.794;2022-07-17T08:26:37;102342.53;;;19.02;100.00
8627;BME280;4351;51.422;6.794;2022-07-17T08:29:06;102346.53;;;19.09;100.00
8627;BME280;4351;51.422;6.794;2022-07-17T08:31:34;102342.63;;;19.26;100.00
8627;BME280;4351;51.422;6.794;2022-07-17T08:34:03;102340.00;;;19.25;100.00
8627;BME280;4351;51.422;6.794;2022-07-17T08:36:31;102345.03;;;19.18;100.00
8627;BME280;4351;51.422;6.794;2022-07-17T08:38:59;102344.56;;;19.37;100.00
8627;BME280;4351;51.422;6.794;2022-07-17T08:41:28;102341.66;;;19.27;100.00
8627;BME280;4351;51.422;6.794;2022-07-17T08:43:58;102347.63;;;19.46;100.00
8627;BME280;4351;51.422;6.794;2022-07-17T08:46:27;102345.19;;;19.54;100.00
8627;BME280;4351;51.422;6.794;2022-07-17T08:49:00;102333.53;;;19.76;100.00
8627;BME280;4351;51.422;6.794;2022-07-17T08:51:40;102341.13;;;19.60;100.00
8627;BME280;4351;51.422;6.794;2022-07-17T08:54:18;102339.72;;;19.54;100.00
8627;BME280;4351;51.422;6.794;2022-07-17T08:56:54;102328.31;;;19.60;100.00
8627;BME280;4351;51.422;6.794;2022-07-17T08:59:26;102338.84;;;19.53;100.00
8627;BME280;4351;51.422;6.794;2022-07-17T09:02:01;102334.84;;;19.71;100.00
8627;BME280;4351;51.422;6.794;2022-07-17T09:04:53;102334.78;;;19.84;100.00
8627;BME280;4351;51.422;6.794;2022-07-17T09:07:50;102338.13;;;19.76;100.00
8627;BME280;4351;51.422;6.794;2022-07-17T09:10:38;102331.69;;;19.64;100.00
8627;BME280;4351;51.422;6.794;2022-07-17T09:13:15;102330.47;;;19.68;100.00
8627;BME280;4351;51.422;6.794;2022-07-17T09:15:56;102329.38;;;19.71;100.00
8627;BME280;4351;51.422;6.794;2022-07-17T09:18:45;102335.09;;;20.17;100.00
8627;BME280;4351;51.422;6.794;2022-07-17T09:21:29;102330.91;;;20.24;100.00
8627;BME280;4351;51.422;6.794;2022-07-17T09:24:07;102330.13;;;19.97;100.00
8627;BME280;4351;51.422;6.794;2022-07-17T09:26:44;102328.78;;;20.03;100.00
8627;BME280;4351;51.422;6.794;2022-07-17T09:29:19;102331.25;;;19.95;100.00
8627;BME280;4351;51.422;6.794;2022-07-17T09:31:55;102329.03;;;20.00;100.00
8627;BME280;4351;51.422;6.794;2022-07-17T09:34:30;102327.72;;;20.42;100.00
8627;BME280;4351;51.422;6.794;2022-07-17T09:37:08;102320.44;;;20.29;100.00
8627;BME280;4351;51.422;6.794;2022-07-17T09:39:43;102324.16;;;20.17;100.00
8627;BME280;4351;51.422;6.794;2022-07-17T09:42:24;102319.88;;;20.37;100.00
8627;BME280;4351;51.422;6.794;2022-07-17T09:45:00;102324.41;;;20.25;100.00
8627;BME280;4351;51.422;6.794;2022-07-17T09:47:37;102326.72;;;20.31;100.00
8627;BME280;4351;51.422;6.794;2022-07-17T09:50:15;102328.66;;;20.29;100.00
8627;BME280;4351;51.422;6.794;2022-07-17T09:52:49;102324.94;;;20.30;100.00
8627;BME280;4351;51.422;6.794;2022-07-17T09:55:38;102328.53;;;20.55;100.00
8627;BME280;4351;51.422;6.794;2022-07-17T09:58:21;102327.25;;;20.48;100.00
8627;BME280;4351;51.422;6.794;2022-07-17T10:01:31;102330.00;;;20.48;100.00
8627;BME280;4351;51.422;6.794;2022-07-17T10:04:16;102330.66;;;20.63;100.00
8627;BME280;4351;51.422;6.794;2022-07-17T10:07:06;102336.00;;;20.53;100.00
8627;BME280;4351;51.422;6.794;2022-07-17T10:09:58;102325.56;;;20.70;100.00
8627;BME280;4351;51.422;6.794;2022-07-17T10:13:01;102324.66;;;20.70;100.00
8627;BME280;4351;51.422;6.794;2022-07-17T10:15:56;102324.94;;;20.89;100.00
8627;BME280;4351;51.422;6.794;2022-07-17T10:18:41;102329.16;;;20.82;100.00
8627;BME280;4351;51.422;6.794;2022-07-17T10:21:51;102333.31;;;20.88;100.00
8627;BME280;4351;51.422;6.794;2022-07-17T10:24:43;102337.41;;;20.94;100.00
8627;BME280;4351;51.422;6.794;2022-07-17T10:27:50;102332.09;;;21.04;100.00
8627;BME280;4351;51.422;6.794;2022-07-17T10:30:51;102332.19;;;20.90;100.00
8627;BME280;4351;51.422;6.794;2022-07-17T10:33:32;102329.59;;;21.00;100.00
8627;BME280;4351;51.422;6.794;2022-07-17T10:36:13;102327.25;;;21.19;100.00
8627;BME280;4351;51.422;6.794;2022-07-17T10:39:17;102329.72;;;21.22;100.00
8627;BME280;4351;51.422;6.794;2022-07-17T10:42:05;102326.81;;;21.46;100.00
8627;BME280;4351;51.422;6.794;2022-07-17T10:44:49;102332.72;;;21.30;100.00
8627;BME280;4351;51.422;6.794;2022-07-17T10:47:27;102325.47;;;21.41;99.80
8627;BME280;4351;51.422;6.794;2022-07-17T10:50:26;102322.72;;;21.41;100.00
8627;BME280;4351;51.422;6.794;2022-07-17T10:53:09;102321.34;;;21.46;100.00
8627;BME280;4351;51.422;6.794;2022-07-17T10:55:55;102316.94;;;21.55;100.00
8627;BME280;4351;51.422;6.794;2022-07-17T10:58:34;102314.44;;;21.52;100.00
8627;BME280;4351;51.422;6.794;2022-07-17T11:01:06;102326.66;;;21.59;100.00
8627;BME280;4351;51.422;6.794;2022-07-17T11:03:41;102311.81;;;21.74;100.00
8627;BME280;4351;51.422;6.794;2022-07-17T11:06:14;102311.28;;;21.80;100.00
8627;BME280;4351;51.422;6.794;2022-07-17T11:08:59;102319.41;;;22.14;91.18
8627;BME280;4351;51.422;6.794;2022-07-17T11:11:40;102307.09;;;22.30;87.25
8627;BME280;4351;51.422;6.794;2022-07-17T11:14:16;102310.22;;;22.04;87.21
8627;BME280;4351;51.422;6.794;2022-07-17T11:17:00;102310.66;;;22.42;84.56
8627;BME280;4351;51.422;6.794;2022-07-17T11:19:37;102307.97;;;22.52;84.73
8627;BME280;4351;51.422;6.794;2022-07-17T11:22:12;102309.28;;;22.58;90.32
8627;BME280;4351;51.422;6.794;2022-07-17T11:24:43;102310.06;;;22.81;83.87
8627;BME280;4351;51.422;6.794;2022-07-17T11:27:42;102303.94;;;22.56;83.31
8627;BME280;4351;51.422;6.794;2022-07-17T11:30:19;102306.75;;;22.45;80.38
8627;BME280;4351;51.422;6.794;2022-07-17T11:32:55;102304.66;;;23.01;77.32
8627;BME280;4351;51.422;6.794;2022-07-17T11:35:37;102303.09;;;22.77;76.80
8627;BME280;4351;51.422;6.794;2022-07-17T11:38:12;102301.06;;;22.79;73.52
8627;BME280;4351;51.422;6.794;2022-07-17T11:40:54;102291.13;;;22.67;77.91
8627;BME280;4351;51.422;6.794;2022-07-17T11:43:50;102292.13;;;22.66;75.95
8627;BME280;4351;51.422;6.794;2022-07-17T11:46:25;102298.41;;;22.68;75.49
8627;BME280;4351;51.422;6.794;2022-07-17T11:49:09;102290.25;;;22.88;71.54
8627;BME280;4351;51.422;6.794;2022-07-17T11:51:43;102286.28;;;22.80;71.81
8627;BME280;4351;51.422;6.794;2022-07-17T11:54:25;102296.56;;;22.78;72.86
8627;BME280;4351;51.422;6.794;2022-07-17T11:57:11;102293.88;;;22.88;71.74
8627;BME280;4351;51.422;6.794;2022-07-17T12:00:14;102287.09;;;22.92;72.91
8627;BME280;4351;51.422;6.794;2022-07-17T12:02:57;102285.81;;;23.06;71.99
8627;BME280;4351;51.422;6.794;2022-07-17T12:05:31;102289.31;;;23.08;69.15
8627;BME280;4351;51.422;6.794;2022-07-17T12:08:07;102281.09;;;23.28;64.36
8627;BME280;4351;51.422;6.794;2022-07-17T12:11:00;102283.59;;;23.31;66.76
8627;BME280;4351;51.422;6.794;2022-07-17T12:13:42;102286.16;;;23.74;61.99
8627;BME280;4351;51.422;6.794;2022-07-17T12:16:22;102280.31;;;23.48;64.37
8627;BME280;4351;51.422;6.794;2022-07-17T12:19:07;102271.84;;;23.29;64.03
8627;BME280;4351;51.422;6.794;2022-07-17T12:22:13;102270.31;;;23.47;68.44
8627;BME280;4351;51.422;6.794;2022-07-17T12:25:05;102267.75;;;23.75;68.46
8627;BME280;4351;51.422;6.794;2022-07-17T12:27:44;102271.22;;;23.67;70.05
8627;BME280;4351;51.422;6.794;2022-07-17T12:30:30;102269.16;;;23.59;70.17
8627;BME280;4351;51.422;6.794;2022-07-17T12:33:13;102268.88;;;23.52;69.28
8627;BME280;4351;51.422;6.794;2022-07-17T12:36:00;102255.81;;;23.54;72.84
8627;BME280;4351;51.422;6.794;2022-07-17T12:38:33;102272.09;;;23.87;67.94
8627;BME280;4351;51.422;6.794;2022-07-17T12:41:08;102261.66;;;23.81;68.42
8627;BME280;4351;51.422;6.794;2022-07-17T12:43:52;102261.81;;;23.80;65.34
8627;BME280;4351;51.422;6.794;2022-07-17T12:46:34;102259.31;;;23.96;65.29
8627;BME280;4351;51.422;6.794;2022-07-17T12:49:15;102260.34;;;23.95;68.57
8627;BME280;4351;51.422;6.794;2022-07-17T12:51:55;102258.88;;;24.01;64.09
8627;BME280;4351;51.422;6.794;2022-07-17T12:54:45;102264.53;;;24.19;61.82
8627;BME280;4351;51.422;6.794;2022-07-17T12:57:20;102266.25;;;24.20;60.99
8627;BME280;4351;51.422;6.794;2022-07-17T13:00:03;102265.41;;;24.30;59.95
8627;BME280;4351;51.422;6.794;2022-07-17T13:02:46;102267.81;;;24.53;60.18
8627;BME280;4351;51.422;6.794;2022-07-17T13:05:39;102256.97;;;24.31;60.08
8627;BME280;4351;51.422;6.794;2022-07-17T13:08:20;102261.63;;;24.21;60.19
8627;BME280;4351;51.422;6.794;2022-07-17T13:11:03;102256.38;;;24.38;59.63
8627;BME280;4351;51.422;6.794;2022-07-17T13:13:47;102252.28;;;24.52;59.31
8627;BME280;4351;51.422;6.794;2022-07-17T13:16:25;102246.00;;;24.69;57.83
8627;BME280;4351;51.422;6.794;2022-07-17T13:19:08;102237.22;;;24.84;58.20
8627;BME280;4351;51.422;6.794;2022-07-17T13:21:41;102232.81;;;24.63;56.84
8627;BME280;4351;51.422;6.794;2022-07-17T13:24:13;102247.78;;;24.61;55.50
8627;BME280;4351;51.422;6.794;2022-07-17T13:26:52;102244.91;;;24.52;55.36
8627;BME280;4351;51.422;6.794;2022-07-17T13:29:33;102241.28;;;24.42;55.40
8627;BME280;4351;51.422;6.794;2022-07-17T13:32:09;102249.03;;;24.76;54.50
8627;BME280;4351;51.422;6.794;2022-07-17T13:34:50;102240.06;;;24.64;54.96
8627;BME280;4351;51.422;6.794;2022-07-17T13:37:25;102243.44;;;24.86;55.03